Time;durP1;ratioP1;P1;durP2;ratioP2;P2;SDS_P1;SDS_P2;PMS_P1;PMS_P2;Temp;Humidity;BMP_temperature;BMP_pressure;BME280_temperature;BME280_humidity;BME280_pressure;Samples;Min_cycle;Max_cycle;Signal;HPM_P1;HPM_P2
2022/12/06 00:01:32;;;;;;;14.07;10.48;;;;;;;4.37;100.00;100661.84;5036267;28;20313;-73
2022/12/06 00:04:01;;;;;;;15.68;11.07;;;;;;;4.37;100.00;100664.50;5045846;28;20203;-74
2022/12/06 00:06:30;;;;;;;15.55;10.32;;;;;;;4.44;100.00;100655.50;5033544;28;20231;-74
2022/12/06 00:08:58;;;;;;;11.00;9.30;;;;;;;4.33;100.00;100661.00;5031374;28;20223;-74
2022/12/06 00:13:53;;;;;;;14.70;10.70;;;;;;;4.29;100.00;100655.72;5055933;22;20234;-72
2022/12/06 00:16:21;;;;;;;14.40;11.00;;;;;;;4.27;100.00;100647.75;5035754;28;20199;-71
2022/12/06 00:18:48;;;;;;;15.82;11.38;;;;;;;4.23;100.00;100653.16;5048957;28;20197;-72
2022/12/06 00:21:16;;;;;;;15.18;10.65;;;;;;;4.22;100.00;100643.41;5035001;28;20203;-72
2022/12/06 00:23:45;;;;;;;16.38;9.65;;;;;;;4.27;100.00;100645.09;5025763;28;20224;-71
2022/12/06 00:26:13;;;;;;;13.35;9.52;;;;;;;4.30;100.00;100647.72;5031469;28;20225;-73
2022/12/06 00:28:41;;;;;;;12.02;9.68;;;;;;;4.28;100.00;100641.53;5038788;28;20645;-72
2022/12/06 00:31:09;;;;;;;14.10;10.68;;;;;;;4.25;100.00;100641.59;5032507;28;20209;-72
2022/12/06 00:33:37;;;;;;;14.45;10.13;;;;;;;4.28;100.00;100645.97;5034047;28;20229;-72
2022/12/06 00:36:06;;;;;;;14.40;8.25;;;;;;;4.28;100.00;100636.19;5023505;28;20195;-71
2022/12/06 00:38:33;;;;;;;10.57;8.73;;;;;;;4.32;100.00;100640.56;5016633;28;20201;-72
2022/12/06 00:41:02;;;;;;;11.30;7.70;;;;;;;4.33;100.00;100639.66;5023600;28;20201;-72
2022/12/06 00:43:29;;;;;;;13.82;7.60;;;;;;;4.28;100.00;100640.66;5034490;28;20226;-71
2022/12/06 00:45:55;;;;;;;11.93;7.55;;;;;;;4.34;100.00;100644.09;5025566;28;20230;-71
2022/12/06 00:48:22;;;;;;;8.95;7.18;;;;;;;4.32;100.00;100635.25;5016233;28;20215;-71
2022/12/06 00:50:50;;;;;;;9.55;6.95;;;;;;;4.34;100.00;100638.78;5033964;28;20202;-73
2022/12/06 00:53:17;;;;;;;8.40;6.15;;;;;;;4.35;100.00;100632.53;5026264;28;20219;-72
2022/12/06 00:55:45;;;;;;;8.32;5.85;;;;;;;4.35;100.00;100631.66;5037600;28;20195;-72
2022/12/06 00:58:12;;;;;;;6.97;6.00;;;;;;;4.27;100.00;100620.22;5037048;28;20273;-72
2022/12/06 01:00:39;;;;;;;7.05;5.80;;;;;;;4.29;100.00;100629.94;5035944;28;20285;-72
2022/12/06 01:03:06;;;;;;;7.43;5.47;;;;;;;4.34;100.00;100629.88;5029262;28;20225;-72
2022/12/06 01:05:33;;;;;;;8.05;5.47;;;;;;;4.35;100.00;100631.66;5037049;28;20200;-72
2022/12/06 01:08:01;;;;;;;7.10;5.30;;;;;;;4.34;100.00;100638.78;5031967;28;20290;-72
2022/12/06 01:10:27;;;;;;;7.22;5.93;;;;;;;4.33;100.00;100639.66;5034151;28;20206;-72
2022/12/06 01:12:54;;;;;;;7.75;5.63;;;;;;;4.32;100.00;100635.25;5032458;28;20314;-73
2022/12/06 01:15:20;;;;;;;8.52;6.22;;;;;;;4.37;100.00;100644.03;5040395;28;20206;-72
2022/12/06 01:17:47;;;;;;;7.53;5.85;;;;;;;4.44;100.00;100646.63;5047327;28;20229;-73
2022/12/06 01:20:13;;;;;;;6.85;5.85;;;;;;;4.53;100.00;100641.13;5024327;28;20215;-72
2022/12/06 01:22:40;;;;;;;7.13;5.70;;;;;;;4.51;100.00;100641.16;5027244;28;20218;-72
2022/12/06 01:25:08;;;;;;;8.00;5.22;;;;;;;4.50;100.00;100649.16;5033205;28;20207;-71
2022/12/06 01:27:35;;;;;;;7.80;5.10;;;;;;;4.52;100.00;100648.25;5039071;28;20252;-73
2022/12/06 01:30:02;;;;;;;7.07;5.70;;;;;;;4.52;100.00;100658.03;5039167;28;20194;-71
2022/12/06 01:32:29;;;;;;;6.82;5.43;;;;;;;4.51;100.00;100653.59;5050299;28;20236;-72
2022/12/06 01:34:56;;;;;;;6.15;5.20;;;;;;;4.52;100.00;100658.03;5047274;28;20234;-72
2022/12/06 01:37:22;;;;;;;8.63;5.35;;;;;;;4.51;100.00;100658.94;5051546;28;20255;-72
2022/12/06 01:39:49;;;;;;;7.38;5.45;;;;;;;4.50;100.00;100666.06;5043149;28;20260;-72
2022/12/06 01:42:17;;;;;;;6.55;5.03;;;;;;;4.46;100.00;100667.03;5043743;28;20240;-73
2022/12/06 01:44:46;;;;;;;5.53;4.55;;;;;;;4.45;100.00;100659.03;5043660;28;20204;-72
2022/12/06 01:47:17;;;;;;;6.00;4.95;;;;;;;4.47;100.00;100659.91;5039813;28;20283;-71
2022/12/06 01:49:45;;;;;;;5.65;4.60;;;;;;;4.47;100.00;100660.75;5032911;28;20291;-71
2022/12/06 01:52:14;;;;;;;6.68;4.40;;;;;;;4.48;100.00;100661.69;5032560;28;20309;-71
2022/12/06 01:54:41;;;;;;;6.00;4.45;;;;;;;4.36;100.00;100657.38;5015122;28;20560;-71
2022/12/06 01:57:12;;;;;;;7.00;5.03;;;;;;;4.43;100.00;100650.19;5037221;28;20216;-72
2022/12/06 01:59:40;;;;;;;5.00;4.25;;;;;;;4.43;100.00;100660.84;5016015;28;20291;-71
2022/12/06 02:02:07;;;;;;;6.32;4.45;;;;;;;4.40;100.00;100651.13;5028305;28;20220;-72
2022/12/06 02:04:34;;;;;;;6.47;4.50;;;;;;;4.37;100.00;100649.38;5015198;28;20215;-72
2022/12/06 02:07:02;;;;;;;5.90;4.88;;;;;;;4.38;100.00;100648.47;5033913;28;20220;-72
2022/12/06 02:09:29;;;;;;;6.55;5.03;;;;;;;4.39;100.00;100641.38;5026530;28;20202;-72
2022/12/06 02:11:56;;;;;;;5.80;4.68;;;;;;;4.38;100.00;100642.25;5034093;28;20230;-72
2022/12/06 02:14:27;;;;;;;6.97;5.15;;;;;;;4.37;100.00;100646.72;5043607;28;20209;-72
2022/12/06 02:17:14;;;;;;;6.50;4.90;;;;;;;4.38;100.00;100647.59;5039934;28;20230;-72
2022/12/06 02:20:07;;;;;;;6.80;4.88;;;;;;;4.34;100.00;100638.78;5030075;28;20197;-73
2022/12/06 02:23:09;;;;;;;6.72;5.00;;;;;;;4.35;100.00;100626.31;5034304;28;20218;-72
2022/12/06 02:25:59;;;;;;;5.82;4.43;;;;;;;4.43;100.00;100631.50;5022051;28;20202;-72
2022/12/06 02:28:53;;;;;;;5.90;4.95;;;;;;;4.18;100.00;100626.56;5035850;28;20198;-72
2022/12/06 02:31:28;;;;;;;9.30;5.63;;;;;;;4.17;100.00;100623.03;5035110;28;20198;-71
2022/12/06 02:34:01;;;;;;;8.57;5.15;;;;;;;4.18;100.00;100616.81;5033304;28;20265;-72
2022/12/06 02:36:31;;;;;;;6.18;4.68;;;;;;;4.17;100.00;100619.47;5044523;28;20218;-70
2022/12/06 02:39:04;;;;;;;5.82;4.95;;;;;;;4.11;100.00;100619.56;5041740;28;20603;-72
2022/12/06 02:41:35;;;;;;;6.15;5.10;;;;;;;4.15;100.00;100615.97;5042029;28;20679;-73
2022/12/06 02:44:05;;;;;;;7.35;5.05;;;;;;;4.09;100.00;100613.38;5043023;28;20195;-71
2022/12/06 02:46:37;;;;;;;7.43;5.22;;;;;;;4.02;100.00;100617.91;5029207;28;20226;-74
2022/12/06 02:49:06;;;;;;;8.25;5.70;;;;;;;4.09;100.00;100626.72;5044291;28;20205;-72
2022/12/06 02:51:36;;;;;;;5.65;4.40;;;;;;;4.08;100.00;100623.16;5038046;28;20199;-73
2022/12/06 02:54:07;;;;;;;5.20;4.55;;;;;;;4.08;100.00;100627.63;5042713;28;20184;-74
2022/12/06 02:56:34;;;;;;;8.38;6.30;;;;;;;4.11;100.00;100619.56;5044409;28;20198;-74
2022/12/06 02:59:01;;;;;;;6.20;4.80;;;;;;;4.13;100.00;100629.31;5049734;28;20579;-73
2022/12/06 03:01:30;;;;;;;6.63;5.03;;;;;;;4.13;100.00;100623.97;5035291;28;20651;-73
2022/12/06 03:04:31;;;;;;;6.28;4.80;;;;;;;4.21;100.00;100621.19;5036099;28;20193;-71
2022/12/06 03:07:11;;;;;;;7.68;6.00;;;;;;;4.23;100.00;100621.16;5038467;28;20210;-72
2022/12/06 03:09:52;;;;;;;6.07;5.30;;;;;;;4.15;100.00;100615.97;5029746;28;20217;-73
2022/12/06 03:12:29;;;;;;;5.80;4.55;;;;;;;4.10;100.00;100616.03;5029870;28;20324;-73
2022/12/06 03:15:03;;;;;;;5.55;4.53;;;;;;;4.13;100.00;100623.09;5035793;28;20198;-72
2022/12/06 03:17:39;;;;;;;6.35;4.93;;;;;;;4.12;100.00;100622.22;5058876;28;20237;-72
2022/12/06 03:20:12;;;;;;;7.20;5.00;;;;;;;4.11;100.00;100622.22;5062242;28;20223;-72
2022/12/06 03:22:42;;;;;;;6.80;4.90;;;;;;;4.10;100.00;100629.34;5053103;28;20219;-73
2022/12/06 03:25:10;;;;;;;6.28;4.75;;;;;;;4.09;100.00;100622.28;5050976;28;20221;-72
2022/12/06 03:27:39;;;;;;;6.22;4.82;;;;;;;4.11;100.00;100630.22;5040126;28;20629;-71
2022/12/06 03:30:11;;;;;;;5.60;4.82;;;;;;;4.10;100.00;100615.16;5049883;28;20253;-71
2022/12/06 03:32:40;;;;;;;6.22;5.13;;;;;;;4.10;100.00;100620.50;5049551;28;20218;-72
2022/12/06 03:35:11;;;;;;;7.13;5.05;;;;;;;4.05;100.00;100622.31;5052969;28;20222;-72
2022/12/06 03:37:43;;;;;;;6.03;4.88;;;;;;;4.04;100.00;100623.25;5044178;28;20210;-72
2022/12/06 03:40:18;;;;;;;6.43;4.75;;;;;;;4.03;100.00;100613.50;5041606;28;20212;-73
2022/12/06 03:42:44;;;;;;;6.68;4.90;;;;;;;3.98;100.00;100616.22;5041522;28;20792;-72
2022/12/06 03:45:13;;;;;;;7.35;5.20;;;;;;;4.01;100.00;100604.63;5032890;28;20230;-72
2022/12/06 03:47:47;;;;;;;8.60;5.07;;;;;;;3.97;100.00;100604.66;5040408;28;20228;-72
2022/12/06 03:50:19;;;;;;;5.35;4.63;;;;;;;3.91;100.00;100596.78;5037358;28;20293;-74
2022/12/06 03:52:46;;;;;;;6.38;4.93;;;;;;;3.93;100.00;100602.97;5037480;28;20220;-71
2022/12/06 03:55:12;;;;;;;7.30;5.25;;;;;;;3.91;100.00;100602.13;5050672;28;20202;-73
2022/12/06 03:57:39;;;;;;;6.80;4.90;;;;;;;3.94;100.00;100601.19;5044722;28;20285;-72
2022/12/06 04:00:07;;;;;;;6.15;5.03;;;;;;;3.95;100.00;100605.59;5044982;28;20198;-73
2022/12/06 04:02:33;;;;;;;7.90;5.60;;;;;;;3.97;100.00;100594.00;5027680;28;20228;-73
2022/12/06 04:05:00;;;;;;;8.05;5.55;;;;;;;3.93;100.00;100597.66;5037240;28;20215;-74
2022/12/06 04:07:28;;;;;;;7.80;5.30;;;;;;;3.90;100.00;100600.34;5034906;28;20715;-71
2022/12/06 04:10:01;;;;;;;6.18;4.47;;;;;;;3.91;100.00;100593.22;5035329;28;20293;-74
2022/12/06 04:15:10;;;;;;;6.40;5.38;;;;;;;3.83;100.00;100587.13;4970972;28;20641;-71
2022/12/06 04:20:22;;;;;;;6.90;4.80;;;;;;;3.73;100.00;100578.38;4987502;28;20214;-73
2022/12/06 04:23:04;;;;;;;7.05;5.20;;;;;;;3.72;100.00;100576.63;4998315;28;20226;-74
2022/12/06 04:25:31;;;;;;;6.60;5.10;;;;;;;3.69;100.00;100579.34;4982660;28;20263;-71
2022/12/06 04:38:56;;;;;;;8.68;5.85;;;;;;;3.55;100.00;100574.22;4974361;28;20616;-73
2022/12/06 04:44:07;;;;;;;8.57;6.40;;;;;;;3.62;100.00;100570.56;4971692;28;20263;-72
2022/12/06 04:46:34;;;;;;;6.40;5.50;;;;;;;3.69;100.00;100571.38;4982088;28;20662;-72
2022/12/06 04:49:00;;;;;;;7.63;5.57;;;;;;;3.60;100.00;100563.50;4976840;28;20252;-73
2022/12/06 04:51:27;;;;;;;8.93;6.25;;;;;;;3.58;100.00;100565.31;4979546;28;20586;-72
2022/12/06 04:53:55;;;;;;;9.10;6.78;;;;;;;3.58;100.00;100570.63;5041282;28;20209;-73
2022/12/06 04:56:22;;;;;;;8.60;6.90;;;;;;;3.61;100.00;100559.94;5036054;28;20213;-72
2022/12/06 04:58:48;;;;;;;8.98;6.88;;;;;;;3.66;100.00;100560.72;5043578;28;20193;-71
2022/12/06 05:01:15;;;;;;;10.15;7.22;;;;;;;3.56;100.00;100557.31;5023725;28;20300;-73
2022/12/06 05:03:41;;;;;;;9.27;6.40;;;;;;;3.58;100.00;100558.19;5049462;28;20239;-72
2022/12/06 05:06:08;;;;;;;12.90;9.45;;;;;;;3.67;100.00;100573.16;5043705;28;20205;-74
2022/12/06 05:08:35;;;;;;;6.93;5.90;;;;;;;3.65;100.00;100561.66;5038837;28;20221;-73
2022/12/06 05:11:03;;;;;;;8.43;6.43;;;;;;;3.64;100.00;100565.19;5029695;28;20199;-73
2022/12/06 05:13:29;;;;;;;10.20;6.55;;;;;;;3.61;100.00;100570.56;5048984;28;20321;-71
2022/12/06 05:15:58;;;;;;;6.28;5.35;;;;;;;3.63;100.00;100563.44;5032548;28;20203;-71
2022/12/06 05:18:25;;;;;;;7.07;5.63;;;;;;;3.68;100.00;100569.56;5041762;28;20213;-71
2022/12/06 05:21:01;;;;;;;7.90;6.13;;;;;;;3.61;100.00;100566.13;5041578;28;20202;-71
2022/12/06 05:23:27;;;;;;;8.30;6.22;;;;;;;3.66;100.00;100563.38;5043320;28;20294;-71
2022/12/06 05:25:57;;;;;;;7.53;5.97;;;;;;;3.67;100.00;100570.50;5039053;28;20201;-73
2022/12/06 05:28:25;;;;;;;8.45;6.72;;;;;;;3.70;100.00;100573.97;5032733;28;20201;-72
2022/12/06 05:30:52;;;;;;;8.45;6.88;;;;;;;3.69;100.00;100574.03;5031675;28;20203;-71
2022/12/06 05:33:19;;;;;;;15.85;9.23;;;;;;;3.73;100.00;100575.72;5024976;28;20312;-70
2022/12/06 05:35:45;;;;;;;8.73;6.82;;;;;;;3.72;100.00;100580.16;5025819;28;20206;-71
2022/12/06 05:38:12;;;;;;;9.70;6.40;;;;;;;3.69;100.00;100564.25;5032944;28;20202;-71
2022/12/06 05:40:40;;;;;;;8.70;6.28;;;;;;;3.70;100.00;100575.78;5042406;28;20720;-71
2022/12/06 05:43:06;;;;;;;7.45;6.13;;;;;;;3.59;100.00;100575.03;5039080;28;20218;-71
2022/12/06 05:45:35;;;;;;;7.60;6.50;;;;;;;3.64;100.00;100575.84;5034210;28;21155;-71
2022/12/06 05:48:02;;;;;;;7.32;5.50;;;;;;;3.62;100.00;100572.31;5027516;28;20221;-72
2022/12/06 05:50:28;;;;;;;8.13;5.63;;;;;;;3.56;100.00;100573.31;5039730;28;20271;-71
2022/12/06 05:52:55;;;;;;;5.75;5.13;;;;;;;3.51;100.00;100576.03;5041136;28;20213;-72
2022/12/06 05:55:22;;;;;;;8.45;6.80;;;;;;;3.58;100.00;100574.16;5023753;28;20198;-72
2022/12/06 05:57:49;;;;;;;8.45;5.68;;;;;;;3.57;100.00;100574.19;5040336;28;20362;-72
2022/12/06 06:00:16;;;;;;;8.13;6.03;;;;;;;3.50;100.00;100574.25;5033087;28;20655;-72
2022/12/06 06:02:44;;;;;;;7.80;5.85;;;;;;;3.49;100.00;100574.28;5024157;28;20311;-72
2022/12/06 06:05:11;;;;;;;8.18;6.13;;;;;;;3.48;100.00;100573.44;5040402;28;20670;-71
2022/12/06 06:07:38;;;;;;;8.10;6.10;;;;;;;3.50;100.00;100579.56;5041001;28;20670;-71
2022/12/06 06:10:07;;;;;;;9.45;6.47;;;;;;;3.55;100.00;100574.22;5034749;28;20572;-71
2022/12/06 06:12:33;;;;;;;10.70;6.80;;;;;;;3.46;100.00;100572.56;5049631;22;20282;-77
2022/12/06 06:15:00;;;;;;;8.48;6.22;;;;;;;3.40;100.00;100569.97;5062138;28;20261;-76
2022/12/06 06:17:26;;;;;;;9.35;6.47;;;;;;;3.41;100.00;100574.38;5060669;28;20217;-78
2022/12/06 06:19:54;;;;;;;7.72;5.93;;;;;;;3.47;100.00;100568.97;5063094;28;20218;-77
2022/12/06 06:22:21;;;;;;;10.18;6.15;;;;;;;3.41;100.00;100569.06;5051974;28;20198;-78
2022/12/06 06:24:48;;;;;;;8.05;6.38;;;;;;;3.35;100.00;100574.47;5037165;28;20182;-76
2022/12/06 06:27:15;;;;;;;8.05;6.95;;;;;;;3.30;100.00;100577.22;5032095;28;20210;-75
2022/12/06 06:29:41;;;;;;;9.93;6.28;;;;;;;3.37;100.00;100572.69;5047979;28;20233;-77
2022/12/06 06:32:08;;;;;;;9.35;7.13;;;;;;;3.39;100.00;100567.31;5026197;28;20210;-74
2022/12/06 06:34:34;;;;;;;8.70;7.13;;;;;;;3.29;100.00;100583.41;5016619;28;20222;-74
2022/12/06 06:37:03;;;;;;;8.00;5.75;;;;;;;3.37;100.00;100582.44;5017272;28;20195;-74
2022/12/06 06:39:29;;;;;;;10.82;6.70;;;;;;;3.42;100.00;100580.59;5018049;28;20218;-76
2022/12/06 06:41:56;;;;;;;9.32;6.90;;;;;;;3.48;100.00;100584.06;5014965;28;20280;-76
2022/12/06 06:44:22;;;;;;;9.27;7.28;;;;;;;3.48;100.00;100573.44;5015430;28;20611;-76
2022/12/06 06:46:49;;;;;;;9.15;6.80;;;;;;;3.51;100.00;100580.47;5017003;28;20198;-74
2022/12/06 06:49:17;;;;;;;8.98;6.43;;;;;;;3.54;100.00;100585.75;5017689;28;20250;-76
2022/12/06 06:51:44;;;;;;;10.18;6.65;;;;;;;3.52;100.00;100582.22;5016783;28;20203;-76
2022/12/06 06:54:12;;;;;;;10.00;7.20;;;;;;;3.44;100.00;100585.00;5009914;28;20309;-77
2022/12/06 06:56:39;;;;;;;7.93;6.18;;;;;;;3.47;100.00;100587.63;5023653;28;20198;-75
2022/12/06 06:59:05;;;;;;;8.90;6.70;;;;;;;3.46;100.00;100583.22;5022341;28;20225;-74
2022/12/06 07:01:32;;;;;;;8.02;5.63;;;;;;;3.46;100.00;100591.19;5010490;28;20194;-76
2022/12/06 07:03:58;;;;;;;9.52;6.85;;;;;;;3.47;100.00;100594.72;5011555;28;20249;-75
2022/12/06 07:06:25;;;;;;;12.13;8.70;;;;;;;3.50;100.00;100590.22;5016133;28;20200;-75
2022/12/06 07:08:52;;;;;;;9.07;6.63;;;;;;;3.50;100.00;100598.22;5026407;28;20304;-75
2022/12/06 07:11:19;;;;;;;8.43;6.72;;;;;;;3.52;100.00;100598.22;5021546;28;20203;-74
2022/12/06 07:13:46;;;;;;;7.93;6.05;;;;;;;3.52;100.00;100592.88;5014901;28;20234;-76
2022/12/06 07:16:15;;;;;;;7.65;6.38;;;;;;;3.47;100.00;100595.59;5012539;28;20203;-75
2022/12/06 07:18:42;;;;;;;23.15;14.20;;;;;;;3.50;100.00;100587.56;5013341;28;20209;-74
2022/12/06 07:21:10;;;;;;;10.73;8.13;;;;;;;3.59;100.00;100596.34;5019137;28;20209;-75
2022/12/06 07:23:37;;;;;;;7.80;7.00;;;;;;;3.64;100.00;100591.81;5017321;28;20259;-77
2022/12/06 07:26:06;;;;;;;8.70;6.88;;;;;;;3.57;100.00;100595.47;5016203;28;20205;-74
2022/12/06 07:28:35;;;;;;;9.10;6.32;;;;;;;3.58;100.00;100602.59;5018063;28;20229;-76
2022/12/06 07:31:08;;;;;;;8.35;6.55;;;;;;;3.61;100.00;100597.22;5015958;28;20210;-73
2022/12/06 07:33:34;;;;;;;8.02;6.03;;;;;;;3.68;100.00;100601.53;5016685;28;20225;-75
2022/12/06 07:36:01;;;;;;;7.57;5.90;;;;;;;3.66;100.00;100590.03;5016992;28;20719;-75
2022/12/06 07:38:27;;;;;;;8.48;6.30;;;;;;;3.66;100.00;100603.34;5018706;28;20267;-75
2022/12/06 07:40:54;;;;;;;8.00;6.10;;;;;;;3.70;100.00;100603.28;5019304;28;20210;-75
2022/12/06 07:46:10;;;;;;;7.32;5.95;;;;;;;3.66;100.00;100598.88;5016118;28;20687;-74
2022/12/06 07:48:36;;;;;;;6.82;5.68;;;;;;;3.73;100.00;100602.34;5015510;28;20215;-75
2022/12/06 07:51:04;;;;;;;6.72;5.28;;;;;;;3.79;100.00;100601.41;5015752;28;20198;-74
2022/12/06 07:53:30;;;;;;;7.22;5.47;;;;;;;3.74;100.00;100599.69;5015871;28;20227;-75
2022/12/06 07:55:57;;;;;;;6.28;5.40;;;;;;;3.79;100.00;100596.94;5015686;28;20202;-75
2022/12/06 07:58:23;;;;;;;7.65;5.65;;;;;;;3.87;100.00;100608.38;5015354;28;20592;-78
2022/12/06 08:00:50;;;;;;;6.28;5.10;;;;;;;3.83;100.00;100604.00;5015562;28;20199;-74
2022/12/06 08:03:18;;;;;;;8.52;5.95;;;;;;;3.88;100.00;100595.94;5015065;28;20795;-75
2022/12/06 08:05:53;;;;;;;6.40;4.60;;;;;;;3.94;100.00;100599.38;5015378;28;20298;-74
2022/12/06 08:08:20;;;;;;;6.68;5.30;;;;;;;3.93;100.00;100600.31;5015201;28;20218;-74
2022/12/06 08:10:46;;;;;;;6.95;5.30;;;;;;;3.97;100.00;100595.78;5015350;28;20206;-74
2022/12/06 08:13:13;;;;;;;7.85;4.90;;;;;;;3.99;100.00;100603.78;5015179;28;20325;-75
2022/12/06 08:15:39;;;;;;;6.47;5.68;;;;;;;3.97;100.00;100598.47;5014815;28;20294;-74
2022/12/06 08:18:06;;;;;;;6.88;5.30;;;;;;;3.90;100.00;100599.47;5014375;28;20677;-74
2022/12/06 08:20:34;;;;;;;7.65;5.88;;;;;;;3.98;100.00;100608.25;5014010;28;20198;-75
2022/12/06 08:23:00;;;;;;;11.90;8.75;;;;;;;4.04;100.00;100599.25;5015429;28;20229;-74
2022/12/06 08:25:27;;;;;;;6.72;5.82;;;;;;;4.06;100.00;100600.97;5015034;28;20202;-74
2022/12/06 08:27:53;;;;;;;5.10;4.60;;;;;;;3.99;100.00;100591.31;5014806;28;20209;-74
2022/12/06 08:30:20;;;;;;;5.43;4.60;;;;;;;4.06;100.00;100600.09;5014748;28;20202;-74
2022/12/06 08:32:47;;;;;;;6.32;5.05;;;;;;;4.10;100.00;100597.38;5015025;28;20223;-74
2022/12/06 08:35:13;;;;;;;6.80;5.22;;;;;;;4.03;100.00;100600.16;5015310;28;20214;-74
2022/12/06 08:37:41;;;;;;;7.47;5.05;;;;;;;4.06;100.00;100595.66;4997367;28;20198;-75
2022/12/06 08:40:09;;;;;;;5.88;4.75;;;;;;;4.01;100.00;100600.19;5014694;28;20202;-74
2022/12/06 08:42:35;;;;;;;5.22;4.50;;;;;;;4.12;100.00;100595.56;5015024;28;20227;-76
2022/12/06 08:45:02;;;;;;;6.25;4.68;;;;;;;4.17;100.00;100608.81;5014743;28;20237;-75
2022/12/06 08:47:28;;;;;;;6.40;4.90;;;;;;;4.21;100.00;100607.88;5014133;28;20210;-75
2022/12/06 08:49:57;;;;;;;5.00;4.40;;;;;;;4.26;100.00;100603.34;5014204;28;20233;-75
2022/12/06 08:52:23;;;;;;;7.90;5.00;;;;;;;4.29;100.00;100603.28;5014687;28;20691;-76
2022/12/06 08:54:51;;;;;;;4.68;4.05;;;;;;;4.24;100.00;100601.59;5014486;28;20240;-75
2022/12/06 08:57:18;;;;;;;4.95;4.53;;;;;;;4.32;100.00;100591.69;5015725;28;20206;-75
2022/12/06 08:59:44;;;;;;;5.70;4.65;;;;;;;4.36;100.00;100590.72;5013752;28;20198;-75
2022/12/06 09:02:12;;;;;;;7.18;5.25;;;;;;;4.37;100.00;100601.38;5014417;28;20243;-76
2022/12/06 09:04:38;;;;;;;5.60;4.47;;;;;;;4.30;100.00;100602.38;5014440;28;20203;-74
2022/12/06 09:07:05;;;;;;;5.60;4.55;;;;;;;4.28;100.00;100612.19;5020815;28;20204;-75
2022/12/06 09:09:32;;;;;;;6.03;4.80;;;;;;;4.27;100.00;100615.75;5019398;28;20732;-75
2022/12/06 09:12:00;;;;;;;6.15;5.00;;;;;;;4.36;100.00;100610.28;5018638;28;20200;-75
2022/12/06 09:14:26;;;;;;;6.95;4.82;;;;;;;4.45;100.00;100608.38;5018661;28;20322;-75
2022/12/06 09:16:53;;;;;;;7.25;4.70;;;;;;;4.57;100.00;100605.50;5018707;28;20199;-76
2022/12/06 09:19:20;;;;;;;5.50;4.70;;;;;;;4.67;100.00;100612.41;5017870;28;20569;-74
2022/12/06 09:21:47;;;;;;;6.10;5.50;;;;;;;4.76;100.00;100606.03;5017913;28;20209;-75
2022/12/06 09:24:16;;;;;;;5.30;4.80;;;;;;;4.75;100.00;100605.16;5016864;28;20228;-75
2022/12/06 09:26:43;;;;;;;9.80;6.13;;;;;;;4.70;100.00;100606.16;5017426;28;20199;-77
2022/12/06 09:29:12;;;;;;;6.30;5.20;;;;;;;4.80;100.00;100599.75;5013235;28;20227;-77
2022/12/06 09:31:39;;;;;;;6.50;5.03;;;;;;;4.88;100.00;100607.59;5013369;28;20697;-74
2022/12/06 09:34:06;;;;;;;7.95;5.72;;;;;;;4.95;100.00;100606.56;5013631;28;20439;-75
2022/12/06 09:36:33;;;;;;;6.32;5.45;;;;;;;5.09;100.00;100608.97;5015764;28;20279;-76
2022/12/06 09:39:03;;;;;;;7.45;5.35;;;;;;;5.19;100.00;100607.91;5016950;28;20207;-75
2022/12/06 09:42:01;;;;;;;6.18;5.10;;;;;;;5.37;100.00;100606.63;5017644;28;20209;-76
2022/12/06 09:44:47;;;;;;;6.25;5.20;;;;;;;5.36;100.00;100610.19;5014203;28;20215;-78
2022/12/06 09:47:25;;;;;;;9.27;5.45;;;;;;;5.09;100.00;100608.97;5014015;28;20697;-74
2022/12/06 09:50:02;;;;;;;5.95;5.07;;;;;;;5.21;100.00;100608.75;5012844;28;20230;-75
2022/12/06 09:53:09;;;;;;;7.10;5.22;;;;;;;5.28;100.00;100610.38;5013355;28;20324;-76
2022/12/06 09:55:45;;;;;;;5.68;4.60;;;;;;;5.48;100.00;100609.97;5000627;28;20612;-75
2022/12/06 09:58:23;;;;;;;5.82;4.68;;;;;;;5.59;100.00;100613.28;5013027;28;20564;-75
2022/12/06 10:01:04;;;;;;;6.25;5.65;;;;;;;5.73;100.00;100609.44;5013383;28;20292;-74
2022/12/06 10:03:54;;;;;;;6.03;5.00;;;;;;;5.85;100.00;100609.16;5013002;28;20789;-75
2022/12/06 10:06:23;;;;;;;5.70;5.05;;;;;;;5.72;100.00;100613.00;5013334;28;20190;-75
2022/12/06 10:09:03;;;;;;;5.53;4.80;;;;;;;5.63;100.00;100608.75;5012358;28;20222;-75
2022/12/06 10:11:43;;;;;;;8.95;4.25;;;;;;;5.77;100.00;100609.34;5012875;28;20190;-75
2022/12/06 10:14:21;;;;;;;6.05;5.10;;;;;;;5.77;100.00;100600.44;5012842;28;20233;-74
2022/12/06 10:16:58;;;;;;;6.13;5.32;;;;;;;5.72;100.00;100600.56;5013646;28;20641;-75
2022/12/06 10:19:45;;;;;;;6.50;5.18;;;;;;;6.10;100.00;100598.81;5013929;28;20192;-76
2022/12/06 10:22:18;;;;;;;6.78;4.78;;;;;;;6.26;100.00;100594.88;5013826;28;20281;-74
2022/12/06 10:24:57;;;;;;;6.75;5.20;;;;;;;6.26;100.00;100599.31;5013099;28;20210;-75
2022/12/06 10:27:29;;;;;;;6.60;5.18;;;;;;;6.48;100.00;100597.00;5015382;28;20193;-75
2022/12/06 10:29:58;;;;;;;4.90;4.38;;;;;;;6.55;100.00;100598.59;5012665;28;20244;-75
2022/12/06 10:32:43;;;;;;;5.78;4.30;;;;;;;6.43;100.00;100590.88;5012627;28;20237;-76
2022/12/06 10:35:18;;;;;;;4.68;4.20;;;;;;;6.35;100.00;100591.06;5012731;28;20208;-75
2022/12/06 10:37:58;;;;;;;5.78;4.70;;;;;;;6.35;100.00;100592.84;5012288;28;20572;-74
2022/12/06 10:40:30;;;;;;;5.82;4.63;;;;;;;6.59;100.00;100586.88;5012201;28;20212;-73
2022/12/06 10:43:03;;;;;;;4.95;4.45;;;;;;;6.85;100.00;100580.84;5012789;28;20731;-74
2022/12/06 10:48:29;;;;;;;6.65;5.43;;;;;;;7.13;100.00;100587.25;4970638;28;20188;-75
2022/12/06 10:51:01;;;;;;;5.85;4.95;;;;;;;7.30;100.00;100583.16;4971645;28;20308;-76
2022/12/06 10:53:32;;;;;;;8.45;5.60;;;;;;;7.13;100.00;100584.56;4972722;28;20231;-75
2022/12/06 10:56:04;;;;;;;7.63;4.68;;;;;;;7.25;100.00;100593.13;4975227;28;20203;-73
2022/12/06 10:58:37;;;;;;;4.57;4.15;;;;;;;7.15;100.00;100586.28;4974712;28;20700;-75
2022/12/06 11:01:07;;;;;;;6.05;4.53;;;;;;;7.05;100.00;100590.13;4975757;28;20388;-75
2022/12/06 11:03:40;;;;;;;4.93;4.32;;;;;;;6.86;100.00;100585.28;4977116;28;20378;-77
2022/12/06 11:06:11;;;;;;;5.75;4.78;;;;;;;6.71;100.00;100599.06;4978476;28;20211;-76
2022/12/06 11:08:41;;;;;;;4.93;3.90;;;;;;;6.62;100.00;100584.13;4977403;28;20243;-74
2022/12/06 11:11:14;;;;;;;8.60;4.38;;;;;;;6.79;100.00;100591.72;4979753;28;20188;-75
2022/12/06 11:13:46;;;;;;;5.00;3.97;;;;;;;6.83;100.00;100585.38;4977126;28;20287;-76
2022/12/06 11:16:20;;;;;;;4.85;4.20;;;;;;;7.04;100.00;100591.94;4977026;28;20219;-74
2022/12/06 11:18:49;;;;;;;5.32;4.10;;;;;;;6.98;100.00;100585.88;4975529;28;20272;-76
2022/12/06 11:21:24;;;;;;;5.32;4.40;;;;;;;7.04;100.00;100577.66;4975728;28;20204;-75
2022/12/06 11:23:56;;;;;;;4.78;4.30;;;;;;;7.17;100.00;100583.53;4974438;28;20585;-74
2022/12/06 11:26:30;;;;;;;5.32;4.30;;;;;;;7.22;100.00;100585.19;5012922;28;20588;-75
2022/12/06 11:29:04;;;;;;;4.85;4.18;;;;;;;7.23;100.00;100584.25;5017004;28;20206;-76
2022/12/06 11:31:35;;;;;;;6.13;4.82;;;;;;;7.28;100.00;100579.66;5016815;28;20209;-74
2022/12/06 11:34:05;;;;;;;5.97;5.00;;;;;;;7.03;100.00;100579.47;5017100;28;20257;-75
2022/12/06 11:36:32;;;;;;;6.05;5.38;;;;;;;6.87;100.00;100571.00;5020098;28;20260;-74
2022/12/06 11:39:00;;;;;;;6.18;4.50;;;;;;;7.01;100.00;100575.06;5017234;28;20199;-77
2022/12/06 11:41:29;;;;;;;5.63;5.10;;;;;;;6.64;100.00;100573.38;5016719;28;20233;-75
2022/12/06 11:43:57;;;;;;;5.28;4.35;;;;;;;6.62;100.00;100576.09;5017135;28;20307;-76
2022/12/06 11:46:25;;;;;;;6.13;5.22;;;;;;;6.63;100.00;100579.66;5017474;28;20198;-75
2022/12/06 11:48:53;;;;;;;6.05;5.20;;;;;;;6.59;100.00;100569.97;5016700;28;20227;-76
2022/12/06 11:51:23;;;;;;;5.05;4.07;;;;;;;6.47;100.00;100574.72;5020907;28;20203;-76
2022/12/06 11:53:57;;;;;;;6.88;5.43;;;;;;;6.36;100.00;100568.75;5025640;28;20228;-75
2022/12/06 11:56:26;;;;;;;5.80;4.60;;;;;;;6.46;100.00;100566.72;5027681;28;20269;-76
2022/12/06 11:59:03;;;;;;;6.85;5.40;;;;;;;6.40;100.00;100566.88;5026347;28;20205;-74
2022/12/06 12:01:39;;;;;;;4.95;4.45;;;;;;;6.35;100.00;100561.63;5034060;28;20207;-77
2022/12/06 12:04:24;;;;;;;5.80;4.50;;;;;;;6.28;100.00;100562.72;5032655;28;20228;-75